sensor_id;sensor_type;location;lat;lon;timestamp;P1;durP1;ratioP1;P2;durP2;ratioP2
3293;SDS011;1659;51.470;6.770;2023-05-16T00:01:06;4.13;;;3.60;;
3293;SDS011;1659;51.470;6.770;2023-05-16T00:03:33;5.67;;;2.77;;
3293;SDS011;1659;51.470;6.770;2023-05-16T00:06:02;5.47;;;3.30;;
3293;SDS011;1659;51.470;6.770;2023-05-16T00:08:29;4.43;;;3.40;;
3293;SDS011;1659;51.470;6.770;2023-05-16T00:10:55;6.60;;;4.20;;
3293;SDS011;1659;51.470;6.770;2023-05-16T00:13:22;4.70;;;3.23;;
3293;SDS011;1659;51.470;6.770;2023-05-16T00:15:50;7.93;;;4.20;;
3293;SDS011;1659;51.470;6.770;2023-05-16T00:18:17;7.67;;;4.00;;
3293;SDS011;1659;51.470;6.770;2023-05-16T00:20:44;8.17;;;3.83;;
3293;SDS011;1659;51.470;6.770;2023-05-16T00:23:12;12.40;;;3.93;;
3293;SDS011;1659;51.470;6.770;2023-05-16T00:25:38;3.50;;;3.20;;
3293;SDS011;1659;51.470;6.770;2023-05-16T00:28:05;9.30;;;3.80;;
3293;SDS011;1659;51.470;6.770;2023-05-16T00:30:32;5.30;;;4.00;;
3293;SDS011;1659;51.470;6.770;2023-05-16T00:32:59;8.00;;;4.73;;
3293;SDS011;1659;51.470;6.770;2023-05-16T00:35:26;7.67;;;4.70;;
3293;SDS011;1659;51.470;6.770;2023-05-16T00:37:52;6.97;;;3.73;;
3293;SDS011;1659;51.470;6.770;2023-05-16T00:40:20;5.33;;;3.87;;
3293;SDS011;1659;51.470;6.770;2023-05-16T00:42:47;11.63;;;3.90;;
3293;SDS011;1659;51.470;6.770;2023-05-16T00:45:13;4.50;;;3.37;;
3293;SDS011;1659;51.470;6.770;2023-05-16T00:47:40;4.23;;;3.67;;
3293;SDS011;1659;51.470;6.770;2023-05-16T00:50:07;10.10;;;4.00;;
3293;SDS011;1659;51.470;6.770;2023-05-16T00:52:34;4.97;;;3.10;;
3293;SDS011;1659;51.470;6.770;2023-05-16T00:55:01;4.93;;;3.57;;
3293;SDS011;1659;51.470;6.770;2023-05-16T00:57:29;4.83;;;3.63;;
3293;SDS011;1659;51.470;6.770;2023-05-16T00:59:55;4.90;;;3.87;;
3293;SDS011;1659;51.470;6.770;2023-05-16T01:02:22;8.17;;;3.67;;
3293;SDS011;1659;51.470;6.770;2023-05-16T01:04:52;7.00;;;2.87;;
3293;SDS011;1659;51.470;6.770;2023-05-16T01:07:20;7.70;;;3.70;;
3293;SDS011;1659;51.470;6.770;2023-05-16T01:09:47;4.33;;;3.07;;
3293;SDS011;1659;51.470;6.770;2023-05-16T01:12:15;5.00;;;3.47;;
3293;SDS011;1659;51.470;6.770;2023-05-16T01:14:53;5.10;;;3.87;;
3293;SDS011;1659;51.470;6.770;2023-05-16T01:17:28;5.20;;;3.30;;
3293;SDS011;1659;51.470;6.770;2023-05-16T01:20:06;11.27;;;4.10;;
3293;SDS011;1659;51.470;6.770;2023-05-16T01:22:45;6.83;;;3.97;;
3293;SDS011;1659;51.470;6.770;2023-05-16T01:25:21;8.10;;;3.60;;
3293;SDS011;1659;51.470;6.770;2023-05-16T01:27:58;6.13;;;3.73;;
3293;SDS011;1659;51.470;6.770;2023-05-16T01:30:31;5.40;;;4.00;;
3293;SDS011;1659;51.470;6.770;2023-05-16T01:32:59;12.33;;;3.73;;
3293;SDS011;1659;51.470;6.770;2023-05-16T01:35:25;9.17;;;4.93;;
3293;SDS011;1659;51.470;6.770;2023-05-16T01:37:54;6.70;;;4.00;;
3293;SDS011;1659;51.470;6.770;2023-05-16T01:40:31;7.80;;;3.30;;
3293;SDS011;1659;51.470;6.770;2023-05-16T01:43:07;5.13;;;3.43;;
3293;SDS011;1659;51.470;6.770;2023-05-16T01:45:38;7.40;;;3.83;;
3293;SDS011;1659;51.470;6.770;2023-05-16T01:48:09;9.07;;;3.50;;
3293;SDS011;1659;51.470;6.770;2023-05-16T01:50:42;10.47;;;4.60;;
3293;SDS011;1659;51.470;6.770;2023-05-16T01:53:13;9.63;;;3.77;;
3293;SDS011;1659;51.470;6.770;2023-05-16T01:55:44;16.30;;;4.60;;
3293;SDS011;1659;51.470;6.770;2023-05-16T01:58:14;4.83;;;3.30;;
3293;SDS011;1659;51.470;6.770;2023-05-16T02:00:43;10.50;;;3.93;;
3293;SDS011;1659;51.470;6.770;2023-05-16T02:03:09;11.77;;;5.03;;
3293;SDS011;1659;51.470;6.770;2023-05-16T02:05:36;10.90;;;3.93;;
3293;SDS011;1659;51.470;6.770;2023-05-16T02:08:03;10.60;;;3.67;;
3293;SDS011;1659;51.470;6.770;2023-05-16T02:10:30;5.40;;;3.43;;
3293;SDS011;1659;51.470;6.770;2023-05-16T02:12:56;7.93;;;3.87;;
3293;SDS011;1659;51.470;6.770;2023-05-16T02:15:24;11.67;;;4.27;;
3293;SDS011;1659;51.470;6.770;2023-05-16T02:17:51;8.10;;;4.70;;
3293;SDS011;1659;51.470;6.770;2023-05-16T02:20:17;8.50;;;3.73;;
3293;SDS011;1659;51.470;6.770;2023-05-16T02:22:44;10.33;;;3.77;;
3293;SDS011;1659;51.470;6.770;2023-05-16T02:25:13;10.33;;;4.17;;
3293;SDS011;1659;51.470;6.770;2023-05-16T02:27:40;11.03;;;4.07;;
3293;SDS011;1659;51.470;6.770;2023-05-16T02:30:08;13.13;;;3.70;;
3293;SDS011;1659;51.470;6.770;2023-05-16T02:32:37;9.67;;;3.73;;
3293;SDS011;1659;51.470;6.770;2023-05-16T02:35:04;7.63;;;3.67;;
3293;SDS011;1659;51.470;6.770;2023-05-16T02:37:30;5.10;;;3.80;;
3293;SDS011;1659;51.470;6.770;2023-05-16T02:39:57;10.03;;;3.70;;
3293;SDS011;1659;51.470;6.770;2023-05-16T02:42:24;12.47;;;4.50;;
3293;SDS011;1659;51.470;6.770;2023-05-16T02:44:52;7.20;;;4.00;;
3293;SDS011;1659;51.470;6.770;2023-05-16T02:47:18;8.00;;;3.77;;
3293;SDS011;1659;51.470;6.770;2023-05-16T02:49:46;9.43;;;4.50;;
3293;SDS011;1659;51.470;6.770;2023-05-16T02:52:13;9.63;;;4.13;;
3293;SDS011;1659;51.470;6.770;2023-05-16T02:54:39;13.40;;;5.17;;
3293;SDS011;1659;51.470;6.770;2023-05-16T02:57:06;9.07;;;4.37;;
3293;SDS011;1659;51.470;6.770;2023-05-16T02:59:32;9.70;;;3.07;;
3293;SDS011;1659;51.470;6.770;2023-05-16T03:02:00;19.13;;;4.53;;
3293;SDS011;1659;51.470;6.770;2023-05-16T03:04:26;28.97;;;4.13;;
3293;SDS011;1659;51.470;6.770;2023-05-16T03:06:54;21.87;;;5.13;;
3293;SDS011;1659;51.470;6.770;2023-05-16T03:09:21;5.50;;;2.93;;
3293;SDS011;1659;51.470;6.770;2023-05-16T03:11:48;19.00;;;5.00;;
3293;SDS011;1659;51.470;6.770;2023-05-16T03:14:14;7.47;;;3.80;;
3293;SDS011;1659;51.470;6.770;2023-05-16T03:16:41;7.27;;;3.10;;
3293;SDS011;1659;51.470;6.770;2023-05-16T03:19:07;8.03;;;4.27;;
3293;SDS011;1659;51.470;6.770;2023-05-16T03:21:34;16.43;;;3.77;;
3293;SDS011;1659;51.470;6.770;2023-05-16T03:24:02;9.40;;;3.27;;
3293;SDS011;1659;51.470;6.770;2023-05-16T03:26:29;9.90;;;3.80;;
3293;SDS011;1659;51.470;6.770;2023-05-16T03:28:56;8.80;;;3.63;;
3293;SDS011;1659;51.470;6.770;2023-05-16T03:31:23;11.90;;;3.87;;
3293;SDS011;1659;51.470;6.770;2023-05-16T03:33:49;4.60;;;2.73;;
3293;SDS011;1659;51.470;6.770;2023-05-16T03:36:16;9.00;;;3.93;;
3293;SDS011;1659;51.470;6.770;2023-05-16T03:38:43;8.30;;;3.53;;
3293;SDS011;1659;51.470;6.770;2023-05-16T03:41:11;11.63;;;4.07;;
3293;SDS011;1659;51.470;6.770;2023-05-16T03:43:37;12.30;;;4.73;;
3293;SDS011;1659;51.470;6.770;2023-05-16T03:46:04;7.30;;;3.33;;
3293;SDS011;1659;51.470;6.770;2023-05-16T03:48:30;10.60;;;2.90;;
3293;SDS011;1659;51.470;6.770;2023-05-16T03:50:57;6.70;;;3.33;;
3293;SDS011;1659;51.470;6.770;2023-05-16T03:53:24;8.03;;;3.60;;
3293;SDS011;1659;51.470;6.770;2023-05-16T03:55:50;7.20;;;2.93;;
3293;SDS011;1659;51.470;6.770;2023-05-16T03:58:18;6.70;;;2.70;;
3293;SDS011;1659;51.470;6.770;2023-05-16T04:00:45;9.37;;;3.50;;
3293;SDS011;1659;51.470;6.770;2023-05-16T04:03:11;10.70;;;3.30;;
3293;SDS011;1659;51.470;6.770;2023-05-16T04:05:38;8.10;;;2.70;;
3293;SDS011;1659;51.470;6.770;2023-05-16T04:08:04;9.30;;;3.20;;
3293;SDS011;1659;51.470;6.770;2023-05-16T04:10:31;10.53;;;3.27;;
3293;SDS011;1659;51.470;6.770;2023-05-16T04:12:57;7.00;;;2.67;;
3293;SDS011;1659;51.470;6.770;2023-05-16T04:15:25;15.77;;;3.37;;
3293;SDS011;1659;51.470;6.770;2023-05-16T04:17:53;21.37;;;4.63;;
3293;SDS011;1659;51.470;6.770;2023-05-16T04:20:19;10.17;;;3.20;;
3293;SDS011;1659;51.470;6.770;2023-05-16T04:22:46;7.50;;;3.10;;
3293;SDS011;1659;51.470;6.770;2023-05-16T04:25:13;19.60;;;3.10;;
3293;SDS011;1659;51.470;6.770;2023-05-16T04:27:39;2.60;;;2.40;;
3293;SDS011;1659;51.470;6.770;2023-05-16T04:30:06;5.90;;;2.70;;
3293;SDS011;1659;51.470;6.770;2023-05-16T04:32:36;6.00;;;3.07;;
3293;SDS011;1659;51.470;6.770;2023-05-16T04:35:03;12.33;;;3.23;;
3293;SDS011;1659;51.470;6.770;2023-05-16T04:37:30;6.77;;;2.70;;
3293;SDS011;1659;51.470;6.770;2023-05-16T04:39:56;13.60;;;3.40;;
3293;SDS011;1659;51.470;6.770;2023-05-16T04:42:23;11.30;;;3.37;;
3293;SDS011;1659;51.470;6.770;2023-05-16T04:44:50;16.50;;;3.43;;
3293;SDS011;1659;51.470;6.770;2023-05-16T04:47:16;4.03;;;3.50;;
3293;SDS011;1659;51.470;6.770;2023-05-16T04:49:44;8.10;;;2.60;;
3293;SDS011;1659;51.470;6.770;2023-05-16T04:52:11;2.80;;;2.60;;
3293;SDS011;1659;51.470;6.770;2023-05-16T04:54:37;10.40;;;2.97;;
3293;SDS011;1659;51.470;6.770;2023-05-16T04:57:04;8.53;;;3.27;;
3293;SDS011;1659;51.470;6.770;2023-05-16T04:59:31;11.90;;;3.00;;
3293;SDS011;1659;51.470;6.770;2023-05-16T05:01:57;7.10;;;3.03;;
3293;SDS011;1659;51.470;6.770;2023-05-16T05:04:24;14.30;;;3.67;;
3293;SDS011;1659;51.470;6.770;2023-05-16T05:06:52;6.07;;;3.17;;
3293;SDS011;1659;51.470;6.770;2023-05-16T05:09:18;6.27;;;3.23;;
3293;SDS011;1659;51.470;6.770;2023-05-16T05:11:45;7.70;;;3.40;;
3293;SDS011;1659;51.470;6.770;2023-05-16T05:14:11;6.67;;;3.37;;
3293;SDS011;1659;51.470;6.770;2023-05-16T05:16:38;12.23;;;3.03;;
3293;SDS011;1659;51.470;6.770;2023-05-16T05:19:05;6.53;;;3.40;;
3293;SDS011;1659;51.470;6.770;2023-05-16T05:21:32;12.80;;;3.17;;
3293;SDS011;1659;51.470;6.770;2023-05-16T05:24:00;15.37;;;4.47;;
3293;SDS011;1659;51.470;6.770;2023-05-16T05:26:28;8.70;;;4.17;;
3293;SDS011;1659;51.470;6.770;2023-05-16T05:28:55;7.50;;;4.00;;
3293;SDS011;1659;51.470;6.770;2023-05-16T05:31:21;6.87;;;3.43;;
3293;SDS011;1659;51.470;6.770;2023-05-16T05:33:48;23.87;;;4.47;;
3293;SDS011;1659;51.470;6.770;2023-05-16T05:36:15;7.60;;;3.10;;
3293;SDS011;1659;51.470;6.770;2023-05-16T05:38:41;7.70;;;3.23;;
3293;SDS011;1659;51.470;6.770;2023-05-16T05:41:09;7.30;;;2.90;;
3293;SDS011;1659;51.470;6.770;2023-05-16T05:43:36;16.17;;;3.43;;
3293;SDS011;1659;51.470;6.770;2023-05-16T05:46:03;14.20;;;4.13;;
3293;SDS011;1659;51.470;6.770;2023-05-16T05:48:30;5.17;;;3.10;;
3293;SDS011;1659;51.470;6.770;2023-05-16T05:50:57;9.53;;;3.40;;
3293;SDS011;1659;51.470;6.770;2023-05-16T05:53:23;11.13;;;3.57;;
3293;SDS011;1659;51.470;6.770;2023-05-16T05:55:50;9.50;;;2.67;;
3293;SDS011;1659;51.470;6.770;2023-05-16T05:58:17;12.67;;;3.30;;
3293;SDS011;1659;51.470;6.770;2023-05-16T06:00:44;6.73;;;2.63;;
3293;SDS011;1659;51.470;6.770;2023-05-16T06:03:11;6.57;;;2.93;;
3293;SDS011;1659;51.470;6.770;2023-05-16T06:05:38;10.60;;;2.50;;
3293;SDS011;1659;51.470;6.770;2023-05-16T06:08:05;10.73;;;3.00;;
3293;SDS011;1659;51.470;6.770;2023-05-16T06:10:31;10.40;;;4.17;;
3293;SDS011;1659;51.470;6.770;2023-05-16T06:12:58;5.73;;;2.50;;
3293;SDS011;1659;51.470;6.770;2023-05-16T06:15:26;7.13;;;2.50;;
3293;SDS011;1659;51.470;6.770;2023-05-16T06:17:52;4.33;;;2.23;;
3293;SDS011;1659;51.470;6.770;2023-05-16T06:20:19;10.67;;;2.57;;
3293;SDS011;1659;51.470;6.770;2023-05-16T06:22:46;3.60;;;2.10;;
3293;SDS011;1659;51.470;6.770;2023-05-16T06:25:13;9.67;;;3.20;;
3293;SDS011;1659;51.470;6.770;2023-05-16T06:27:39;6.50;;;3.20;;
3293;SDS011;1659;51.470;6.770;2023-05-16T06:30:06;5.47;;;1.80;;
3293;SDS011;1659;51.470;6.770;2023-05-16T06:32:35;4.70;;;2.20;;
3293;SDS011;1659;51.470;6.770;2023-05-16T06:35:01;6.73;;;1.87;;
3293;SDS011;1659;51.470;6.770;2023-05-16T06:37:28;6.93;;;2.10;;
3293;SDS011;1659;51.470;6.770;2023-05-16T06:39:54;5.17;;;2.30;;
3293;SDS011;1659;51.470;6.770;2023-05-16T06:42:21;6.40;;;2.70;;
3293;SDS011;1659;51.470;6.770;2023-05-16T06:44:47;7.20;;;2.37;;
3293;SDS011;1659;51.470;6.770;2023-05-16T06:47:15;6.83;;;2.63;;
3293;SDS011;1659;51.470;6.770;2023-05-16T06:49:43;7.30;;;2.37;;
3293;SDS011;1659;51.470;6.770;2023-05-16T06:52:09;5.87;;;2.27;;
3293;SDS011;1659;51.470;6.770;2023-05-16T06:54:36;12.57;;;2.43;;
3293;SDS011;1659;51.470;6.770;2023-05-16T06:57:02;1.50;;;1.40;;
3293;SDS011;1659;51.470;6.770;2023-05-16T06:59:30;2.67;;;1.70;;
3293;SDS011;1659;51.470;6.770;2023-05-16T07:01:57;6.43;;;1.90;;
3293;SDS011;1659;51.470;6.770;2023-05-16T07:04:24;4.67;;;2.20;;
3293;SDS011;1659;51.470;6.770;2023-05-16T07:06:51;5.43;;;2.27;;
3293;SDS011;1659;51.470;6.770;2023-05-16T07:09:19;2.10;;;1.57;;
3293;SDS011;1659;51.470;6.770;2023-05-16T07:11:46;5.43;;;1.50;;
3293;SDS011;1659;51.470;6.770;2023-05-16T07:14:12;4.93;;;2.07;;
3293;SDS011;1659;51.470;6.770;2023-05-16T07:16:39;3.73;;;2.07;;
3293;SDS011;1659;51.470;6.770;2023-05-16T07:19:06;3.70;;;2.30;;
3293;SDS011;1659;51.470;6.770;2023-05-16T07:21:32;4.47;;;1.77;;
3293;SDS011;1659;51.470;6.770;2023-05-16T07:24:00;5.10;;;1.53;;
3293;SDS011;1659;51.470;6.770;2023-05-16T07:26:27;6.47;;;1.93;;
3293;SDS011;1659;51.470;6.770;2023-05-16T07:28:53;7.50;;;1.30;;
3293;SDS011;1659;51.470;6.770;2023-05-16T07:31:20;3.13;;;1.60;;
3293;SDS011;1659;51.470;6.770;2023-05-16T07:33:48;7.73;;;1.60;;
3293;SDS011;1659;51.470;6.770;2023-05-16T07:36:14;1.83;;;1.40;;
3293;SDS011;1659;51.470;6.770;2023-05-16T07:38:41;3.93;;;1.73;;
3293;SDS011;1659;51.470;6.770;2023-05-16T07:41:09;2.87;;;1.40;;
3293;SDS011;1659;51.470;6.770;2023-05-16T07:43:35;2.30;;;1.30;;
3293;SDS011;1659;51.470;6.770;2023-05-16T07:46:02;5.93;;;2.20;;
3293;SDS011;1659;51.470;6.770;2023-05-16T07:48:29;5.60;;;1.97;;
3293;SDS011;1659;51.470;6.770;2023-05-16T07:50:55;4.03;;;1.80;;
3293;SDS011;1659;51.470;6.770;2023-05-16T07:53:22;4.30;;;1.83;;
3293;SDS011;1659;51.470;6.770;2023-05-16T07:55:48;1.60;;;1.43;;
3293;SDS011;1659;51.470;6.770;2023-05-16T07:58:17;15.30;;;8.07;;
3293;SDS011;1659;51.470;6.770;2023-05-16T08:00:43;3.90;;;1.77;;
3293;SDS011;1659;51.470;6.770;2023-05-16T08:03:10;2.00;;;1.90;;
3293;SDS011;1659;51.470;6.770;2023-05-16T08:05:36;4.33;;;1.53;;
3293;SDS011;1659;51.470;6.770;2023-05-16T08:08:03;1.97;;;1.87;;
3293;SDS011;1659;51.470;6.770;2023-05-16T08:10:30;7.17;;;2.23;;
3293;SDS011;1659;51.470;6.770;2023-05-16T08:12:57;5.10;;;1.93;;
3293;SDS011;1659;51.470;6.770;2023-05-16T08:15:25;7.97;;;2.60;;
3293;SDS011;1659;51.470;6.770;2023-05-16T08:17:53;10.90;;;4.77;;
3293;SDS011;1659;51.470;6.770;2023-05-16T08:20:22;17.00;;;5.60;;
3293;SDS011;1659;51.470;6.770;2023-05-16T08:22:48;9.57;;;5.07;;
3293;SDS011;1659;51.470;6.770;2023-05-16T08:25:15;5.60;;;3.50;;
3293;SDS011;1659;51.470;6.770;2023-05-16T08:27:43;7.37;;;2.73;;
3293;SDS011;1659;51.470;6.770;2023-05-16T08:30:10;4.83;;;2.30;;
3293;SDS011;1659;51.470;6.770;2023-05-16T08:32:38;5.57;;;2.20;;
3293;SDS011;1659;51.470;6.770;2023-05-16T08:35:05;3.27;;;2.13;;
3293;SDS011;1659;51.470;6.770;2023-05-16T08:37:32;8.63;;;2.83;;
3293;SDS011;1659;51.470;6.770;2023-05-16T08:39:59;4.37;;;2.60;;
3293;SDS011;1659;51.470;6.770;2023-05-16T08:42:25;5.47;;;2.60;;
3293;SDS011;1659;51.470;6.770;2023-05-16T08:44:52;3.50;;;2.10;;
3293;SDS011;1659;51.470;6.770;2023-05-16T08:47:19;4.67;;;2.40;;
3293;SDS011;1659;51.470;6.770;2023-05-16T08:49:50;4.10;;;2.13;;
3293;SDS011;1659;51.470;6.770;2023-05-16T08:52:20;6.80;;;1.67;;
3293;SDS011;1659;51.470;6.770;2023-05-16T08:54:52;7.03;;;2.30;;
3293;SDS011;1659;51.470;6.770;2023-05-16T08:57:20;5.87;;;2.33;;
3293;SDS011;1659;51.470;6.770;2023-05-16T08:59:46;2.53;;;1.77;;
3293;SDS011;1659;51.470;6.770;2023-05-16T09:02:13;3.80;;;1.70;;
3293;SDS011;1659;51.470;6.770;2023-05-16T09:04:41;9.43;;;2.10;;
3293;SDS011;1659;51.470;6.770;2023-05-16T09:07:11;6.13;;;2.60;;
3293;SDS011;1659;51.470;6.770;2023-05-16T09:09:38;6.73;;;2.47;;
3293;SDS011;1659;51.470;6.770;2023-05-16T09:12:04;2.47;;;1.50;;
3293;SDS011;1659;51.470;6.770;2023-05-16T09:14:31;5.37;;;1.70;;
3293;SDS011;1659;51.470;6.770;2023-05-16T09:17:04;4.53;;;2.17;;
3293;SDS011;1659;51.470;6.770;2023-05-16T09:19:36;3.80;;;2.23;;
3293;SDS011;1659;51.470;6.770;2023-05-16T09:22:04;4.03;;;2.13;;
3293;SDS011;1659;51.470;6.770;2023-05-16T09:24:32;3.00;;;2.20;;
3293;SDS011;1659;51.470;6.770;2023-05-16T09:27:06;2.63;;;2.00;;
3293;SDS011;1659;51.470;6.770;2023-05-16T09:29:33;1.70;;;1.50;;
3293;SDS011;1659;51.470;6.770;2023-05-16T09:32:03;3.13;;;1.40;;
3293;SDS011;1659;51.470;6.770;2023-05-16T09:34:36;2.03;;;1.53;;
3293;SDS011;1659;51.470;6.770;2023-05-16T09:37:04;1.70;;;1.30;;
3293;SDS011;1659;51.470;6.770;2023-05-16T09:39:30;8.63;;;4.67;;
3293;SDS011;1659;51.470;6.770;2023-05-16T09:41:58;3.20;;;2.50;;
3293;SDS011;1659;51.470;6.770;2023-05-16T09:44:25;4.63;;;2.93;;
3293;SDS011;1659;51.470;6.770;2023-05-16T09:46:52;3.73;;;2.00;;
3293;SDS011;1659;51.470;6.770;2023-05-16T09:49:19;2.70;;;1.70;;
3293;SDS011;1659;51.470;6.770;2023-05-16T09:51:46;3.63;;;2.13;;
3293;SDS011;1659;51.470;6.770;2023-05-16T09:54:13;4.50;;;2.47;;
3293;SDS011;1659;51.470;6.770;2023-05-16T09:56:47;7.73;;;3.30;;
3293;SDS011;1659;51.470;6.770;2023-05-16T09:59:15;5.60;;;2.53;;
3293;SDS011;1659;51.470;6.770;2023-05-16T10:01:42;3.77;;;3.27;;
3293;SDS011;1659;51.470;6.770;2023-05-16T10:04:09;6.93;;;2.90;;
3293;SDS011;1659;51.470;6.770;2023-05-16T10:06:38;6.40;;;2.70;;
3293;SDS011;1659;51.470;6.770;2023-05-16T10:09:06;5.87;;;2.27;;
3293;SDS011;1659;51.470;6.770;2023-05-16T10:11:36;6.80;;;2.83;;
3293;SDS011;1659;51.470;6.770;2023-05-16T10:14:04;6.10;;;2.50;;
3293;SDS011;1659;51.470;6.770;2023-05-16T10:16:33;3.80;;;2.43;;
3293;SDS011;1659;51.470;6.770;2023-05-16T10:19:00;5.47;;;3.23;;
3293;SDS011;1659;51.470;6.770;2023-05-16T10:21:29;5.13;;;3.03;;
3293;SDS011;1659;51.470;6.770;2023-05-16T10:24:01;5.37;;;3.93;;
3293;SDS011;1659;51.470;6.770;2023-05-16T10:26:29;7.33;;;4.90;;
3293;SDS011;1659;51.470;6.770;2023-05-16T10:28:58;4.53;;;3.40;;
3293;SDS011;1659;51.470;6.770;2023-05-16T10:31:25;4.90;;;2.80;;
3293;SDS011;1659;51.470;6.770;2023-05-16T10:33:55;5.33;;;2.10;;
3293;SDS011;1659;51.470;6.770;2023-05-16T10:36:22;2.63;;;2.33;;
3293;SDS011;1659;51.470;6.770;2023-05-16T10:38:49;6.53;;;3.23;;
3293;SDS011;1659;51.470;6.770;2023-05-16T10:41:17;6.17;;;2.37;;
3293;SDS011;1659;51.470;6.770;2023-05-16T10:43:54;1.67;;;1.57;;
3293;SDS011;1659;51.470;6.770;2023-05-16T10:46:22;6.60;;;2.90;;
3293;SDS011;1659;51.470;6.770;2023-05-16T10:48:49;4.57;;;2.03;;
3293;SDS011;1659;51.470;6.770;2023-05-16T10:51:36;2.60;;;1.83;;
3293;SDS011;1659;51.470;6.770;2023-05-16T10:54:04;2.57;;;1.57;;
3293;SDS011;1659;51.470;6.770;2023-05-16T10:56:31;1.73;;;1.40;;
3293;SDS011;1659;51.470;6.770;2023-05-16T10:58:59;1.80;;;1.33;;
3293;SDS011;1659;51.470;6.770;2023-05-16T11:01:25;1.97;;;1.27;;
3293;SDS011;1659;51.470;6.770;2023-05-16T11:04:00;1.83;;;1.30;;
3293;SDS011;1659;51.470;6.770;2023-05-16T11:06:29;3.33;;;1.40;;
3293;SDS011;1659;51.470;6.770;2023-05-16T11:09:04;4.00;;;3.17;;
3293;SDS011;1659;51.470;6.770;2023-05-16T11:11:37;5.20;;;2.20;;
3293;SDS011;1659;51.470;6.770;2023-05-16T11:14:05;1.40;;;1.00;;
3293;SDS011;1659;51.470;6.770;2023-05-16T11:16:32;1.70;;;1.60;;
3293;SDS011;1659;51.470;6.770;2023-05-16T11:19:03;3.30;;;1.77;;
3293;SDS011;1659;51.470;6.770;2023-05-16T11:24:31;2.33;;;1.70;;
3293;SDS011;1659;51.470;6.770;2023-05-16T11:26:59;1.77;;;1.50;;
3293;SDS011;1659;51.470;6.770;2023-05-16T11:29:26;6.10;;;1.40;;
3293;SDS011;1659;51.470;6.770;2023-05-16T11:31:53;2.37;;;1.30;;
3293;SDS011;1659;51.470;6.770;2023-05-16T11:34:20;1.80;;;0.80;;
3293;SDS011;1659;51.470;6.770;2023-05-16T11:36:47;2.17;;;1.97;;
3293;SDS011;1659;51.470;6.770;2023-05-16T11:39:13;5.40;;;2.17;;
3293;SDS011;1659;51.470;6.770;2023-05-16T11:41:41;2.90;;;1.90;;
3293;SDS011;1659;51.470;6.770;2023-05-16T11:44:10;5.60;;;1.83;;
3293;SDS011;1659;51.470;6.770;2023-05-16T11:46:37;6.90;;;2.40;;
3293;SDS011;1659;51.470;6.770;2023-05-16T11:49:05;8.13;;;5.43;;
3293;SDS011;1659;51.470;6.770;2023-05-16T11:51:33;5.33;;;2.83;;
3293;SDS011;1659;51.470;6.770;2023-05-16T11:54:00;6.67;;;1.93;;
3293;SDS011;1659;51.470;6.770;2023-05-16T11:56:28;1.67;;;1.57;;
3293;SDS011;1659;51.470;6.770;2023-05-16T11:58:57;2.17;;;1.47;;
3293;SDS011;1659;51.470;6.770;2023-05-16T12:01:24;2.50;;;1.90;;
3293;SDS011;1659;51.470;6.770;2023-05-16T12:03:57;1.60;;;1.30;;
3293;SDS011;1659;51.470;6.770;2023-05-16T12:06:23;1.80;;;1.40;;
3293;SDS011;1659;51.470;6.770;2023-05-16T12:08:50;2.70;;;1.40;;
3293;SDS011;1659;51.470;6.770;2023-05-16T12:11:17;2.83;;;2.13;;
3293;SDS011;1659;51.470;6.770;2023-05-16T12:13:45;5.03;;;1.60;;
3293;SDS011;1659;51.470;6.770;2023-05-16T12:16:14;4.23;;;2.53;;
3293;SDS011;1659;51.470;6.770;2023-05-16T12:18:41;3.53;;;1.80;;
3293;SDS011;1659;51.470;6.770;2023-05-16T12:21:08;8.80;;;2.93;;
3293;SDS011;1659;51.470;6.770;2023-05-16T12:23:35;1.97;;;1.20;;
3293;SDS011;1659;51.470;6.770;2023-05-16T12:26:01;1.30;;;0.90;;
3293;SDS011;1659;51.470;6.770;2023-05-16T12:28:32;4.20;;;0.90;;
3293;SDS011;1659;51.470;6.770;2023-05-16T12:30:59;3.57;;;1.30;;
3293;SDS011;1659;51.470;6.770;2023-05-16T12:33:27;0.90;;;0.90;;
3293;SDS011;1659;51.470;6.770;2023-05-16T12:35:54;1.67;;;1.27;;
3293;SDS011;1659;51.470;6.770;2023-05-16T12:38:21;2.60;;;1.63;;
3293;SDS011;1659;51.470;6.770;2023-05-16T12:40:50;3.93;;;1.70;;
3293;SDS011;1659;51.470;6.770;2023-05-16T12:43:23;3.27;;;1.80;;
3293;SDS011;1659;51.470;6.770;2023-05-16T12:45:50;2.10;;;1.80;;
3293;SDS011;1659;51.470;6.770;2023-05-16T12:48:18;2.10;;;1.03;;
3293;SDS011;1659;51.470;6.770;2023-05-16T12:50:47;1.37;;;1.27;;
3293;SDS011;1659;51.470;6.770;2023-05-16T12:53:15;2.40;;;1.27;;
3293;SDS011;1659;51.470;6.770;2023-05-16T12:55:43;1.03;;;1.00;;
3293;SDS011;1659;51.470;6.770;2023-05-16T12:58:10;3.10;;;0.93;;
3293;SDS011;1659;51.470;6.770;2023-05-16T13:00:36;3.10;;;1.87;;
3293;SDS011;1659;51.470;6.770;2023-05-16T13:03:03;1.57;;;0.97;;
3293;SDS011;1659;51.470;6.770;2023-05-16T13:05:31;5.80;;;1.10;;
3293;SDS011;1659;51.470;6.770;2023-05-16T13:07:59;3.57;;;2.63;;
3293;SDS011;1659;51.470;6.770;2023-05-16T13:10:26;4.03;;;2.23;;
3293;SDS011;1659;51.470;6.770;2023-05-16T13:12:53;4.30;;;3.33;;
3293;SDS011;1659;51.470;6.770;2023-05-16T13:15:22;4.20;;;1.93;;
3293;SDS011;1659;51.470;6.770;2023-05-16T13:17:49;2.50;;;1.60;;
3293;SDS011;1659;51.470;6.770;2023-05-16T13:20:15;1.10;;;1.00;;
3293;SDS011;1659;51.470;6.770;2023-05-16T13:22:42;5.03;;;1.40;;
3293;SDS011;1659;51.470;6.770;2023-05-16T13:25:11;2.23;;;1.40;;
3293;SDS011;1659;51.470;6.770;2023-05-16T13:27:38;3.00;;;1.70;;
3293;SDS011;1659;51.470;6.770;2023-05-16T13:30:05;2.37;;;1.73;;
3293;SDS011;1659;51.470;6.770;2023-05-16T13:32:32;4.93;;;1.23;;
3293;SDS011;1659;51.470;6.770;2023-05-16T13:34:59;2.40;;;1.37;;
3293;SDS011;1659;51.470;6.770;2023-05-16T13:37:26;2.70;;;2.00;;
3293;SDS011;1659;51.470;6.770;2023-05-16T13:39:53;12.33;;;5.00;;
3293;SDS011;1659;51.470;6.770;2023-05-16T13:42:21;10.23;;;4.30;;
3293;SDS011;1659;51.470;6.770;2023-05-16T13:44:47;7.80;;;3.97;;
3293;SDS011;1659;51.470;6.770;2023-05-16T13:47:14;3.77;;;1.73;;
3293;SDS011;1659;51.470;6.770;2023-05-16T13:49:41;6.63;;;2.40;;
3293;SDS011;1659;51.470;6.770;2023-05-16T13:52:08;4.37;;;1.80;;
3293;SDS011;1659;51.470;6.770;2023-05-16T13:54:34;4.73;;;2.30;;
3293;SDS011;1659;51.470;6.770;2023-05-16T13:57:01;1.60;;;1.50;;
3293;SDS011;1659;51.470;6.770;2023-05-16T13:59:30;3.10;;;1.70;;
3293;SDS011;1659;51.470;6.770;2023-05-16T14:01:56;11.13;;;2.80;;
3293;SDS011;1659;51.470;6.770;2023-05-16T14:04:23;6.13;;;2.10;;
3293;SDS011;1659;51.470;6.770;2023-05-16T14:06:50;4.63;;;1.70;;
3293;SDS011;1659;51.470;6.770;2023-05-16T14:09:16;6.40;;;1.63;;
3293;SDS011;1659;51.470;6.770;2023-05-16T14:11:43;3.60;;;1.90;;
3293;SDS011;1659;51.470;6.770;2023-05-16T14:14:09;2.10;;;1.90;;
3293;SDS011;1659;51.470;6.770;2023-05-16T14:16:37;5.47;;;2.40;;
3293;SDS011;1659;51.470;6.770;2023-05-16T14:19:07;2.60;;;2.07;;
3293;SDS011;1659;51.470;6.770;2023-05-16T14:21:34;4.23;;;3.17;;
3293;SDS011;1659;51.470;6.770;2023-05-16T14:24:00;4.40;;;2.53;;
3293;SDS011;1659;51.470;6.770;2023-05-16T14:26:27;8.17;;;4.23;;
3293;SDS011;1659;51.470;6.770;2023-05-16T14:28:53;7.60;;;3.80;;
3293;SDS011;1659;51.470;6.770;2023-05-16T14:31:20;6.40;;;4.47;;
3293;SDS011;1659;51.470;6.770;2023-05-16T14:33:48;3.90;;;2.50;;
3293;SDS011;1659;51.470;6.770;2023-05-16T14:36:15;2.97;;;1.53;;
3293;SDS011;1659;51.470;6.770;2023-05-16T14:38:41;7.23;;;3.00;;
3293;SDS011;1659;51.470;6.770;2023-05-16T14:41:08;4.57;;;2.73;;
3293;SDS011;1659;51.470;6.770;2023-05-16T14:43:35;8.00;;;2.67;;
3293;SDS011;1659;51.470;6.770;2023-05-16T14:46:03;3.70;;;2.13;;
3293;SDS011;1659;51.470;6.770;2023-05-16T14:48:29;6.10;;;3.23;;
3293;SDS011;1659;51.470;6.770;2023-05-16T14:50:58;4.80;;;2.53;;
3293;SDS011;1659;51.470;6.770;2023-05-16T14:53:25;4.47;;;2.00;;
3293;SDS011;1659;51.470;6.770;2023-05-16T14:55:51;6.70;;;2.60;;
3293;SDS011;1659;51.470;6.770;2023-05-16T14:58:18;5.20;;;2.43;;
3293;SDS011;1659;51.470;6.770;2023-05-16T15:00:44;4.63;;;2.70;;
3293;SDS011;1659;51.470;6.770;2023-05-16T15:03:11;7.80;;;2.50;;
3293;SDS011;1659;51.470;6.770;2023-05-16T15:05:37;8.33;;;3.00;;
3293;SDS011;1659;51.470;6.770;2023-05-16T15:08:06;3.30;;;1.97;;
3293;SDS011;1659;51.470;6.770;2023-05-16T15:10:33;2.10;;;1.70;;
3293;SDS011;1659;51.470;6.770;2023-05-16T15:12:59;4.03;;;1.93;;
3293;SDS011;1659;51.470;6.770;2023-05-16T15:15:26;2.63;;;2.00;;
3293;SDS011;1659;51.470;6.770;2023-05-16T15:17:52;10.43;;;2.03;;